sensor_id;sensor_type;location;lat;lon;timestamp;P1;durP1;ratioP1;P2;durP2;ratioP2
64932;SDS011;51446;53.850;10.662;2023-03-16T00:00:46;18.00;;;4.87;;
64932;SDS011;51446;53.850;10.662;2023-03-16T00:03:12;13.23;;;4.40;;
64932;SDS011;51446;53.850;10.662;2023-03-16T00:05:49;14.33;;;3.70;;
64932;SDS011;51446;53.850;10.662;2023-03-16T00:08:17;10.52;;;3.30;;
64932;SDS011;51446;53.850;10.662;2023-03-16T00:10:43;14.35;;;4.28;;
64932;SDS011;51446;53.850;10.662;2023-03-16T00:13:15;11.65;;;3.63;;
64932;SDS011;51446;53.850;10.662;2023-03-16T00:15:52;13.53;;;4.03;;
64932;SDS011;51446;53.850;10.662;2023-03-16T00:18:19;11.73;;;3.75;;
64932;SDS011;51446;53.850;10.662;2023-03-16T00:20:49;13.38;;;4.30;;
64932;SDS011;51446;53.850;10.662;2023-03-16T00:23:15;12.33;;;4.57;;
64932;SDS011;51446;53.850;10.662;2023-03-16T00:25:41;12.50;;;4.50;;
64932;SDS011;51446;53.850;10.662;2023-03-16T00:28:06;7.95;;;4.10;;
64932;SDS011;51446;53.850;10.662;2023-03-16T00:30:31;11.50;;;4.57;;
64932;SDS011;51446;53.850;10.662;2023-03-16T00:32:57;8.27;;;4.50;;
64932;SDS011;51446;53.850;10.662;2023-03-16T00:35:22;10.85;;;4.55;;
64932;SDS011;51446;53.850;10.662;2023-03-16T00:37:48;18.10;;;4.50;;
64932;SDS011;51446;53.850;10.662;2023-03-16T00:40:13;9.75;;;3.88;;
64932;SDS011;51446;53.850;10.662;2023-03-16T00:42:39;9.37;;;4.27;;
64932;SDS011;51446;53.850;10.662;2023-03-16T00:45:04;12.93;;;3.90;;
64932;SDS011;51446;53.850;10.662;2023-03-16T00:47:31;13.48;;;4.57;;
64932;SDS011;51446;53.850;10.662;2023-03-16T00:49:58;8.77;;;3.50;;
64932;SDS011;51446;53.850;10.662;2023-03-16T00:52:24;11.38;;;4.07;;
64932;SDS011;51446;53.850;10.662;2023-03-16T00:54:51;9.70;;;3.45;;
64932;SDS011;51446;53.850;10.662;2023-03-16T00:57:17;9.45;;;3.90;;
64932;SDS011;51446;53.850;10.662;2023-03-16T00:59:45;9.05;;;3.58;;
64932;SDS011;51446;53.850;10.662;2023-03-16T01:02:12;13.53;;;4.30;;
64932;SDS011;51446;53.850;10.662;2023-03-16T01:04:38;10.25;;;4.10;;
64932;SDS011;51446;53.850;10.662;2023-03-16T01:07:06;7.38;;;3.63;;
64932;SDS011;51446;53.850;10.662;2023-03-16T01:09:33;11.45;;;3.50;;
64932;SDS011;51446;53.850;10.662;2023-03-16T01:12:04;9.00;;;4.22;;
64932;SDS011;51446;53.850;10.662;2023-03-16T01:14:32;13.43;;;3.83;;
64932;SDS011;51446;53.850;10.662;2023-03-16T01:17:02;13.30;;;3.70;;
64932;SDS011;51446;53.850;10.662;2023-03-16T01:19:28;11.25;;;4.03;;
64932;SDS011;51446;53.850;10.662;2023-03-16T01:21:54;10.48;;;4.10;;
64932;SDS011;51446;53.850;10.662;2023-03-16T01:24:19;10.10;;;4.07;;
64932;SDS011;51446;53.850;10.662;2023-03-16T01:26:44;12.03;;;3.97;;
64932;SDS011;51446;53.850;10.662;2023-03-16T01:29:10;9.63;;;4.23;;
64932;SDS011;51446;53.850;10.662;2023-03-16T01:31:36;12.02;;;3.72;;
64932;SDS011;51446;53.850;10.662;2023-03-16T01:34:02;9.43;;;3.22;;
64932;SDS011;51446;53.850;10.662;2023-03-16T01:36:28;11.07;;;3.40;;
64932;SDS011;51446;53.850;10.662;2023-03-16T01:38:53;12.60;;;3.80;;
64932;SDS011;51446;53.850;10.662;2023-03-16T01:41:19;10.20;;;3.47;;
64932;SDS011;51446;53.850;10.662;2023-03-16T01:43:44;8.63;;;3.33;;
64932;SDS011;51446;53.850;10.662;2023-03-16T01:51:42;11.87;;;3.87;;
64932;SDS011;51446;53.850;10.662;2023-03-16T01:54:14;6.35;;;3.45;;
64932;SDS011;51446;53.850;10.662;2023-03-16T02:02:42;6.45;;;3.70;;
64932;SDS011;51446;53.850;10.662;2023-03-16T02:05:13;6.50;;;3.30;;
64932;SDS011;51446;53.850;10.662;2023-03-16T02:07:45;10.27;;;3.78;;
64932;SDS011;51446;53.850;10.662;2023-03-16T02:10:12;12.38;;;3.88;;
64932;SDS011;51446;53.850;10.662;2023-03-16T02:12:39;5.88;;;3.50;;
64932;SDS011;51446;53.850;10.662;2023-03-16T02:15:04;8.13;;;3.83;;
64932;SDS011;51446;53.850;10.662;2023-03-16T02:17:31;12.52;;;4.32;;
64932;SDS011;51446;53.850;10.662;2023-03-16T02:20:03;11.43;;;4.43;;
64932;SDS011;51446;53.850;10.662;2023-03-16T02:22:36;17.58;;;4.18;;
64932;SDS011;51446;53.850;10.662;2023-03-16T02:25:06;10.88;;;4.03;;
64932;SDS011;51446;53.850;10.662;2023-03-16T02:27:44;15.80;;;5.33;;
64932;SDS011;51446;53.850;10.662;2023-03-16T02:30:18;13.75;;;4.32;;
64932;SDS011;51446;53.850;10.662;2023-03-16T02:32:46;16.05;;;4.38;;
64932;SDS011;51446;53.850;10.662;2023-03-16T02:35:13;8.10;;;4.03;;
64932;SDS011;51446;53.850;10.662;2023-03-16T02:37:39;10.80;;;4.27;;
64932;SDS011;51446;53.850;10.662;2023-03-16T02:43:33;18.02;;;8.05;;
64932;SDS011;51446;53.850;10.662;2023-03-16T02:45:45;30.88;;;7.22;;
64932;SDS011;51446;53.850;10.662;2023-03-16T02:49:00;17.50;;;6.20;;
64932;SDS011;51446;53.850;10.662;2023-03-16T02:51:12;19.55;;;7.30;;
64932;SDS011;51446;53.850;10.662;2023-03-16T02:53:37;11.98;;;5.95;;
64932;SDS011;51446;53.850;10.662;2023-03-16T02:56:03;13.20;;;5.90;;
64932;SDS011;51446;53.850;10.662;2023-03-16T02:58:28;13.17;;;6.53;;
64932;SDS011;51446;53.850;10.662;2023-03-16T03:00:54;12.48;;;5.90;;
64932;SDS011;51446;53.850;10.662;2023-03-16T03:03:20;12.68;;;5.60;;
64932;SDS011;51446;53.850;10.662;2023-03-16T03:05:46;27.97;;;13.23;;
64932;SDS011;51446;53.850;10.662;2023-03-16T03:08:11;19.97;;;8.80;;
64932;SDS011;51446;53.850;10.662;2023-03-16T03:10:37;13.80;;;7.03;;
64932;SDS011;51446;53.850;10.662;2023-03-16T03:13:03;18.43;;;7.70;;
64932;SDS011;51446;53.850;10.662;2023-03-16T03:15:28;15.27;;;6.70;;
64932;SDS011;51446;53.850;10.662;2023-03-16T03:17:53;11.63;;;5.93;;
64932;SDS011;51446;53.850;10.662;2023-03-16T03:20:19;10.00;;;5.50;;
64932;SDS011;51446;53.850;10.662;2023-03-16T03:22:46;16.95;;;6.40;;
64932;SDS011;51446;53.850;10.662;2023-03-16T03:25:14;12.48;;;5.78;;
64932;SDS011;51446;53.850;10.662;2023-03-16T03:27:40;7.67;;;5.10;;
64932;SDS011;51446;53.850;10.662;2023-03-16T03:30:07;20.05;;;12.40;;
64932;SDS011;51446;53.850;10.662;2023-03-16T03:32:34;12.70;;;7.20;;
64932;SDS011;51446;53.850;10.662;2023-03-16T03:34:59;13.40;;;8.07;;
64932;SDS011;51446;53.850;10.662;2023-03-16T03:37:25;14.07;;;7.40;;
64932;SDS011;51446;53.850;10.662;2023-03-16T03:39:50;15.17;;;6.67;;
64932;SDS011;51446;53.850;10.662;2023-03-16T03:42:17;13.02;;;6.03;;
64932;SDS011;51446;53.850;10.662;2023-03-16T03:44:42;12.23;;;5.23;;
64932;SDS011;51446;53.850;10.662;2023-03-16T03:47:08;13.47;;;4.80;;
64932;SDS011;51446;53.850;10.662;2023-03-16T03:49:33;9.53;;;4.90;;
64932;SDS011;51446;53.850;10.662;2023-03-16T03:51:58;11.10;;;5.00;;
64932;SDS011;51446;53.850;10.662;2023-03-16T03:54:26;11.40;;;4.88;;
64932;SDS011;51446;53.850;10.662;2023-03-16T03:56:51;9.23;;;4.50;;
64932;SDS011;51446;53.850;10.662;2023-03-16T03:59:16;14.70;;;4.80;;
64932;SDS011;51446;53.850;10.662;2023-03-16T04:01:42;14.85;;;4.63;;
64932;SDS011;51446;53.850;10.662;2023-03-16T04:04:07;8.65;;;4.57;;
64932;SDS011;51446;53.850;10.662;2023-03-16T04:06:32;12.27;;;4.30;;
64932;SDS011;51446;53.850;10.662;2023-03-16T04:08:57;12.38;;;5.10;;
64932;SDS011;51446;53.850;10.662;2023-03-16T04:11:23;12.50;;;5.18;;
64932;SDS011;51446;53.850;10.662;2023-03-16T04:13:50;11.53;;;4.90;;
64932;SDS011;51446;53.850;10.662;2023-03-16T04:16:15;8.63;;;4.63;;
64932;SDS011;51446;53.850;10.662;2023-03-16T04:18:41;8.88;;;4.93;;
64932;SDS011;51446;53.850;10.662;2023-03-16T04:21:07;14.73;;;5.13;;
64932;SDS011;51446;53.850;10.662;2023-03-16T04:23:37;8.60;;;4.53;;
64932;SDS011;51446;53.850;10.662;2023-03-16T04:26:03;12.43;;;5.20;;
64932;SDS011;51446;53.850;10.662;2023-03-16T04:28:29;9.63;;;4.85;;
64932;SDS011;51446;53.850;10.662;2023-03-16T04:30:59;13.73;;;4.68;;
64932;SDS011;51446;53.850;10.662;2023-03-16T04:33:32;11.15;;;5.00;;
64932;SDS011;51446;53.850;10.662;2023-03-16T04:35:58;11.15;;;5.03;;
64932;SDS011;51446;53.850;10.662;2023-03-16T04:38:24;7.07;;;4.33;;
64932;SDS011;51446;53.850;10.662;2023-03-16T04:40:49;6.78;;;4.30;;
64932;SDS011;51446;53.850;10.662;2023-03-16T04:43:15;10.37;;;4.20;;
64932;SDS011;51446;53.850;10.662;2023-03-16T04:45:41;14.20;;;5.20;;
64932;SDS011;51446;53.850;10.662;2023-03-16T04:48:06;9.32;;;4.22;;
64932;SDS011;51446;53.850;10.662;2023-03-16T04:50:31;11.18;;;4.70;;
64932;SDS011;51446;53.850;10.662;2023-03-16T04:52:56;13.90;;;4.90;;
64932;SDS011;51446;53.850;10.662;2023-03-16T04:55:22;10.07;;;4.60;;
64932;SDS011;51446;53.850;10.662;2023-03-16T04:57:47;9.30;;;4.33;;
64932;SDS011;51446;53.850;10.662;2023-03-16T05:00:13;16.67;;;6.07;;
64932;SDS011;51446;53.850;10.662;2023-03-16T05:02:47;10.82;;;5.00;;
64932;SDS011;51446;53.850;10.662;2023-03-16T05:05:13;9.05;;;5.15;;
64932;SDS011;51446;53.850;10.662;2023-03-16T05:07:39;9.47;;;4.80;;
64932;SDS011;51446;53.850;10.662;2023-03-16T05:10:05;12.77;;;5.22;;
64932;SDS011;51446;53.850;10.662;2023-03-16T05:12:32;13.65;;;5.30;;
64932;SDS011;51446;53.850;10.662;2023-03-16T05:14:57;11.07;;;5.37;;
64932;SDS011;51446;53.850;10.662;2023-03-16T05:17:22;6.47;;;4.47;;
64932;SDS011;51446;53.850;10.662;2023-03-16T05:19:47;10.93;;;5.47;;
64932;SDS011;51446;53.850;10.662;2023-03-16T05:22:13;12.60;;;4.70;;
64932;SDS011;51446;53.850;10.662;2023-03-16T05:24:38;13.10;;;5.10;;
64932;SDS011;51446;53.850;10.662;2023-03-16T05:27:03;9.27;;;4.77;;
64932;SDS011;51446;53.850;10.662;2023-03-16T05:29:30;12.63;;;5.20;;
64932;SDS011;51446;53.850;10.662;2023-03-16T05:31:56;7.13;;;4.15;;
64932;SDS011;51446;53.850;10.662;2023-03-16T05:34:21;12.65;;;4.90;;
64932;SDS011;51446;53.850;10.662;2023-03-16T05:36:47;10.87;;;4.50;;
64932;SDS011;51446;53.850;10.662;2023-03-16T05:39:12;11.77;;;4.73;;
64932;SDS011;51446;53.850;10.662;2023-03-16T05:41:38;14.03;;;4.73;;
64932;SDS011;51446;53.850;10.662;2023-03-16T05:44:03;8.50;;;4.63;;
64932;SDS011;51446;53.850;10.662;2023-03-16T05:46:29;14.48;;;4.57;;
64932;SDS011;51446;53.850;10.662;2023-03-16T05:48:54;10.98;;;4.82;;
64932;SDS011;51446;53.850;10.662;2023-03-16T05:51:19;14.10;;;4.60;;
64932;SDS011;51446;53.850;10.662;2023-03-16T05:53:44;6.30;;;4.67;;
64932;SDS011;51446;53.850;10.662;2023-03-16T05:56:10;11.43;;;4.70;;
64932;SDS011;51446;53.850;10.662;2023-03-16T05:58:36;6.78;;;4.15;;
64932;SDS011;51446;53.850;10.662;2023-03-16T06:01:01;11.57;;;4.97;;
64932;SDS011;51446;53.850;10.662;2023-03-16T06:03:27;6.50;;;3.90;;
64932;SDS011;51446;53.850;10.662;2023-03-16T06:05:52;10.10;;;3.77;;
64932;SDS011;51446;53.850;10.662;2023-03-16T06:08:17;5.50;;;4.33;;
64932;SDS011;51446;53.850;10.662;2023-03-16T06:10:45;6.10;;;3.73;;
64932;SDS011;51446;53.850;10.662;2023-03-16T06:13:11;6.88;;;3.83;;
64932;SDS011;51446;53.850;10.662;2023-03-16T06:15:36;9.73;;;4.13;;
64932;SDS011;51446;53.850;10.662;2023-03-16T06:18:02;6.22;;;3.80;;
64932;SDS011;51446;53.850;10.662;2023-03-16T06:20:27;6.57;;;4.03;;
64932;SDS011;51446;53.850;10.662;2023-03-16T06:22:53;8.83;;;4.00;;
64932;SDS011;51446;53.850;10.662;2023-03-16T06:25:18;9.43;;;4.40;;
64932;SDS011;51446;53.850;10.662;2023-03-16T06:27:43;6.83;;;4.40;;
64932;SDS011;51446;53.850;10.662;2023-03-16T06:30:11;9.50;;;4.70;;
64932;SDS011;51446;53.850;10.662;2023-03-16T06:32:37;9.07;;;4.30;;
64932;SDS011;51446;53.850;10.662;2023-03-16T06:35:06;8.43;;;4.30;;
64932;SDS011;51446;53.850;10.662;2023-03-16T06:37:32;7.90;;;4.10;;
64932;SDS011;51446;53.850;10.662;2023-03-16T06:39:58;8.32;;;3.70;;
64932;SDS011;51446;53.850;10.662;2023-03-16T06:42:23;9.27;;;3.40;;
64932;SDS011;51446;53.850;10.662;2023-03-16T06:44:49;9.83;;;2.87;;
64932;SDS011;51446;53.850;10.662;2023-03-16T06:47:15;4.90;;;2.90;;
64932;SDS011;51446;53.850;10.662;2023-03-16T06:49:40;9.63;;;3.70;;
64932;SDS011;51446;53.850;10.662;2023-03-16T06:52:05;8.27;;;3.53;;
64932;SDS011;51446;53.850;10.662;2023-03-16T06:54:30;5.77;;;3.10;;
64932;SDS011;51446;53.850;10.662;2023-03-16T06:57:01;5.28;;;3.10;;
64932;SDS011;51446;53.850;10.662;2023-03-16T06:59:26;6.80;;;3.50;;
64932;SDS011;51446;53.850;10.662;2023-03-16T07:01:52;5.43;;;3.30;;
64932;SDS011;51446;53.850;10.662;2023-03-16T07:04:17;6.00;;;3.60;;
64932;SDS011;51446;53.850;10.662;2023-03-16T07:06:42;6.23;;;3.43;;
64932;SDS011;51446;53.850;10.662;2023-03-16T07:09:07;6.60;;;3.40;;
64932;SDS011;51446;53.850;10.662;2023-03-16T07:11:33;5.35;;;3.40;;
64932;SDS011;51446;53.850;10.662;2023-03-16T07:13:58;4.40;;;3.20;;
64932;SDS011;51446;53.850;10.662;2023-03-16T07:16:23;4.60;;;3.37;;
64932;SDS011;51446;53.850;10.662;2023-03-16T07:18:49;4.23;;;3.07;;
64932;SDS011;51446;53.850;10.662;2023-03-16T07:21:16;5.30;;;3.33;;
64932;SDS011;51446;53.850;10.662;2023-03-16T07:23:41;6.43;;;3.30;;
64932;SDS011;51446;53.850;10.662;2023-03-16T07:26:06;5.75;;;3.20;;
64932;SDS011;51446;53.850;10.662;2023-03-16T07:28:32;7.05;;;4.05;;
64932;SDS011;51446;53.850;10.662;2023-03-16T07:30:58;4.77;;;3.30;;
64932;SDS011;51446;53.850;10.662;2023-03-16T07:33:23;4.43;;;3.10;;
64932;SDS011;51446;53.850;10.662;2023-03-16T07:35:48;5.83;;;2.90;;
64932;SDS011;51446;53.850;10.662;2023-03-16T07:38:14;8.77;;;3.53;;
64932;SDS011;51446;53.850;10.662;2023-03-16T07:40:39;10.35;;;3.50;;
64932;SDS011;51446;53.850;10.662;2023-03-16T07:43:05;5.32;;;3.40;;
64932;SDS011;51446;53.850;10.662;2023-03-16T07:45:31;6.90;;;3.10;;
64932;SDS011;51446;53.850;10.662;2023-03-16T07:47:56;5.47;;;3.60;;
64932;SDS011;51446;53.850;10.662;2023-03-16T07:50:21;7.90;;;3.33;;
64932;SDS011;51446;53.850;10.662;2023-03-16T07:52:46;6.40;;;3.27;;
64932;SDS011;51446;53.850;10.662;2023-03-16T07:55:12;8.40;;;3.63;;
64932;SDS011;51446;53.850;10.662;2023-03-16T07:57:38;9.47;;;3.80;;
64932;SDS011;51446;53.850;10.662;2023-03-16T08:00:05;7.40;;;3.60;;
64932;SDS011;51446;53.850;10.662;2023-03-16T08:02:31;6.38;;;3.45;;
64932;SDS011;51446;53.850;10.662;2023-03-16T08:04:57;8.57;;;3.80;;
64932;SDS011;51446;53.850;10.662;2023-03-16T08:07:23;5.95;;;3.30;;
64932;SDS011;51446;53.850;10.662;2023-03-16T08:09:48;7.90;;;3.40;;
64932;SDS011;51446;53.850;10.662;2023-03-16T08:12:15;3.97;;;3.00;;
64932;SDS011;51446;53.850;10.662;2023-03-16T08:14:40;6.90;;;3.00;;
64932;SDS011;51446;53.850;10.662;2023-03-16T08:17:06;6.28;;;2.97;;
64932;SDS011;51446;53.850;10.662;2023-03-16T08:19:32;3.45;;;2.65;;
64932;SDS011;51446;53.850;10.662;2023-03-16T08:21:57;4.77;;;2.77;;
64932;SDS011;51446;53.850;10.662;2023-03-16T08:24:25;5.85;;;2.80;;
64932;SDS011;51446;53.850;10.662;2023-03-16T08:26:51;5.20;;;2.70;;
64932;SDS011;51446;53.850;10.662;2023-03-16T08:29:16;4.27;;;3.10;;
64932;SDS011;51446;53.850;10.662;2023-03-16T08:31:42;5.07;;;2.65;;
64932;SDS011;51446;53.850;10.662;2023-03-16T08:34:08;7.93;;;2.80;;
64932;SDS011;51446;53.850;10.662;2023-03-16T08:36:34;6.15;;;2.50;;
64932;SDS011;51446;53.850;10.662;2023-03-16T08:39:00;6.93;;;2.80;;
64932;SDS011;51446;53.850;10.662;2023-03-16T08:41:26;8.73;;;3.30;;
64932;SDS011;51446;53.850;10.662;2023-03-16T08:43:54;5.97;;;2.88;;
64932;SDS011;51446;53.850;10.662;2023-03-16T08:46:20;6.93;;;2.67;;
64932;SDS011;51446;53.850;10.662;2023-03-16T08:48:45;3.60;;;2.10;;
64932;SDS011;51446;53.850;10.662;2023-03-16T08:51:12;5.13;;;2.30;;
64932;SDS011;51446;53.850;10.662;2023-03-16T08:53:37;8.63;;;2.67;;
64932;SDS011;51446;53.850;10.662;2023-03-16T08:56:03;4.43;;;2.53;;
64932;SDS011;51446;53.850;10.662;2023-03-16T08:58:33;7.00;;;2.97;;
64932;SDS011;51446;53.850;10.662;2023-03-16T09:01:00;4.85;;;2.55;;
64932;SDS011;51446;53.850;10.662;2023-03-16T09:03:26;8.32;;;2.78;;
64932;SDS011;51446;53.850;10.662;2023-03-16T09:05:52;5.47;;;3.10;;
64932;SDS011;51446;53.850;10.662;2023-03-16T09:08:24;8.05;;;2.85;;
64932;SDS011;51446;53.850;10.662;2023-03-16T09:10:49;4.37;;;2.63;;
64932;SDS011;51446;53.850;10.662;2023-03-16T09:13:15;3.90;;;2.38;;
64932;SDS011;51446;53.850;10.662;2023-03-16T09:15:40;3.70;;;2.33;;
64932;SDS011;51446;53.850;10.662;2023-03-16T09:18:05;7.63;;;3.00;;
64932;SDS011;51446;53.850;10.662;2023-03-16T09:20:30;3.43;;;2.10;;
64932;SDS011;51446;53.850;10.662;2023-03-16T09:22:56;5.37;;;2.50;;
64932;SDS011;51446;53.850;10.662;2023-03-16T09:25:22;6.95;;;2.70;;
64932;SDS011;51446;53.850;10.662;2023-03-16T09:27:49;6.32;;;2.72;;
64932;SDS011;51446;53.850;10.662;2023-03-16T09:30:14;3.13;;;2.30;;
64932;SDS011;51446;53.850;10.662;2023-03-16T09:32:40;7.22;;;2.72;;
64932;SDS011;51446;53.850;10.662;2023-03-16T09:35:06;6.67;;;2.73;;
64932;SDS011;51446;53.850;10.662;2023-03-16T09:37:32;9.47;;;2.40;;
64932;SDS011;51446;53.850;10.662;2023-03-16T09:39:58;8.23;;;2.60;;
64932;SDS011;51446;53.850;10.662;2023-03-16T09:42:29;6.33;;;2.60;;
64932;SDS011;51446;53.850;10.662;2023-03-16T09:45:14;10.18;;;2.80;;
64932;SDS011;51446;53.850;10.662;2023-03-16T09:47:47;5.95;;;2.85;;
64932;SDS011;51446;53.850;10.662;2023-03-16T09:50:21;5.82;;;2.70;;
64932;SDS011;51446;53.850;10.662;2023-03-16T09:55:44;4.17;;;2.40;;
64932;SDS011;51446;53.850;10.662;2023-03-16T09:58:15;4.70;;;2.55;;
64932;SDS011;51446;53.850;10.662;2023-03-16T10:00:58;5.88;;;2.28;;
64932;SDS011;51446;53.850;10.662;2023-03-16T10:06:26;3.15;;;2.15;;
64932;SDS011;51446;53.850;10.662;2023-03-16T10:08:54;4.05;;;2.00;;
64932;SDS011;51446;53.850;10.662;2023-03-16T10:11:47;6.22;;;2.10;;
64932;SDS011;51446;53.850;10.662;2023-03-16T10:19:42;4.70;;;1.90;;
64932;SDS011;51446;53.850;10.662;2023-03-16T10:22:20;6.18;;;1.80;;
64932;SDS011;51446;53.850;10.662;2023-03-16T10:28:02;4.45;;;2.28;;
64932;SDS011;51446;53.850;10.662;2023-03-16T10:30:29;3.70;;;1.73;;
64932;SDS011;51446;53.850;10.662;2023-03-16T10:33:01;2.90;;;1.80;;
64932;SDS011;51446;53.850;10.662;2023-03-16T10:43:41;3.58;;;1.52;;
64932;SDS011;51446;53.850;10.662;2023-03-16T10:46:08;2.60;;;1.53;;
64932;SDS011;51446;53.850;10.662;2023-03-16T10:48:35;3.47;;;1.50;;
64932;SDS011;51446;53.850;10.662;2023-03-16T10:51:02;2.03;;;1.40;;
64932;SDS011;51446;53.850;10.662;2023-03-16T10:53:41;4.05;;;1.80;;
64932;SDS011;51446;53.850;10.662;2023-03-16T10:56:12;4.88;;;2.00;;
64932;SDS011;51446;53.850;10.662;2023-03-16T10:58:44;5.05;;;1.70;;
64932;SDS011;51446;53.850;10.662;2023-03-16T11:01:13;3.28;;;1.60;;
64932;SDS011;51446;53.850;10.662;2023-03-16T11:03:46;7.28;;;2.20;;
64932;SDS011;51446;53.850;10.662;2023-03-16T11:06:25;2.67;;;1.77;;
64932;SDS011;51446;53.850;10.662;2023-03-16T11:08:54;3.50;;;1.70;;
64932;SDS011;51446;53.850;10.662;2023-03-16T11:11:26;3.03;;;1.67;;
64932;SDS011;51446;53.850;10.662;2023-03-16T11:13:57;4.35;;;1.80;;
64932;SDS011;51446;53.850;10.662;2023-03-16T11:16:28;4.10;;;1.88;;
64932;SDS011;51446;53.850;10.662;2023-03-16T11:19:08;3.38;;;1.73;;
64932;SDS011;51446;53.850;10.662;2023-03-16T11:30:00;2.08;;;1.42;;
64932;SDS011;51446;53.850;10.662;2023-03-16T11:32:30;5.90;;;1.52;;
64932;SDS011;51446;53.850;10.662;2023-03-16T11:34:59;2.53;;;1.30;;
64932;SDS011;51446;53.850;10.662;2023-03-16T11:40:28;2.10;;;1.33;;
64932;SDS011;51446;53.850;10.662;2023-03-16T11:42:58;2.17;;;1.50;;
64932;SDS011;51446;53.850;10.662;2023-03-16T11:45:54;4.90;;;1.50;;
64932;SDS011;51446;53.850;10.662;2023-03-16T11:48:36;2.13;;;1.50;;
64932;SDS011;51446;53.850;10.662;2023-03-16T11:51:29;2.92;;;2.13;;
64932;SDS011;51446;53.850;10.662;2023-03-16T11:56:49;2.17;;;1.50;;
64932;SDS011;51446;53.850;10.662;2023-03-16T11:59:28;2.28;;;1.30;;
64932;SDS011;51446;53.850;10.662;2023-03-16T12:01:57;2.60;;;1.90;;
64932;SDS011;51446;53.850;10.662;2023-03-16T12:05:07;3.45;;;1.60;;
64932;SDS011;51446;53.850;10.662;2023-03-16T12:11:10;3.93;;;1.70;;
64932;SDS011;51446;53.850;10.662;2023-03-16T12:16:14;2.28;;;1.70;;
64932;SDS011;51446;53.850;10.662;2023-03-16T12:19:05;3.33;;;1.60;;
64932;SDS011;51446;53.850;10.662;2023-03-16T12:21:40;3.80;;;1.40;;
64932;SDS011;51446;53.850;10.662;2023-03-16T12:24:19;3.73;;;1.80;;
64932;SDS011;51446;53.850;10.662;2023-03-16T12:26:48;3.00;;;1.70;;
64932;SDS011;51446;53.850;10.662;2023-03-16T12:29:33;2.67;;;1.73;;
64932;SDS011;51446;53.850;10.662;2023-03-16T12:32:29;4.90;;;2.83;;
64932;SDS011;51446;53.850;10.662;2023-03-16T12:35:15;2.17;;;1.70;;
64932;SDS011;51446;53.850;10.662;2023-03-16T12:40:58;4.45;;;3.67;;
64932;SDS011;51446;53.850;10.662;2023-03-16T12:46:20;6.55;;;2.88;;
64932;SDS011;51446;53.850;10.662;2023-03-16T12:48:53;3.33;;;2.53;;
64932;SDS011;51446;53.850;10.662;2023-03-16T12:51:32;6.22;;;3.75;;
64932;SDS011;51446;53.850;10.662;2023-03-16T12:53:59;2.20;;;1.80;;
64932;SDS011;51446;53.850;10.662;2023-03-16T12:56:33;4.45;;;1.70;;
64932;SDS011;51446;53.850;10.662;2023-03-16T12:59:02;6.45;;;2.92;;
64932;SDS011;51446;53.850;10.662;2023-03-16T13:01:35;3.10;;;2.00;;
64932;SDS011;51446;53.850;10.662;2023-03-16T13:04:08;3.38;;;2.50;;
64932;SDS011;51446;53.850;10.662;2023-03-16T13:06:40;3.55;;;2.58;;
64932;SDS011;51446;53.850;10.662;2023-03-16T13:09:08;9.63;;;4.93;;
64932;SDS011;51446;53.850;10.662;2023-03-16T13:11:39;2.93;;;2.70;;
64932;SDS011;51446;53.850;10.662;2023-03-16T13:19:39;2.72;;;1.70;;
64932;SDS011;51446;53.850;10.662;2023-03-16T13:24:52;3.30;;;1.92;;
64932;SDS011;51446;53.850;10.662;2023-03-16T13:27:36;2.72;;;1.85;;
64932;SDS011;51446;53.850;10.662;2023-03-16T13:32:43;2.03;;;1.70;;
64932;SDS011;51446;53.850;10.662;2023-03-16T13:35:15;4.80;;;3.20;;
64932;SDS011;51446;53.850;10.662;2023-03-16T13:37:43;8.27;;;1.95;;
64932;SDS011;51446;53.850;10.662;2023-03-16T13:40:17;2.13;;;1.70;;
64932;SDS011;51446;53.850;10.662;2023-03-16T13:42:49;3.63;;;2.10;;
64932;SDS011;51446;53.850;10.662;2023-03-16T13:45:19;4.32;;;1.95;;
64932;SDS011;51446;53.850;10.662;2023-03-16T13:47:47;2.80;;;1.80;;
64932;SDS011;51446;53.850;10.662;2023-03-16T13:50:14;2.38;;;1.80;;
64932;SDS011;51446;53.850;10.662;2023-03-16T13:52:41;2.45;;;1.50;;
64932;SDS011;51446;53.850;10.662;2023-03-16T13:55:17;1.90;;;1.70;;
64932;SDS011;51446;53.850;10.662;2023-03-16T13:57:47;4.47;;;3.35;;
64932;SDS011;51446;53.850;10.662;2023-03-16T14:00:14;3.07;;;1.40;;
64932;SDS011;51446;53.850;10.662;2023-03-16T14:02:41;3.75;;;1.40;;
64932;SDS011;51446;53.850;10.662;2023-03-16T14:05:11;3.25;;;1.40;;
64932;SDS011;51446;53.850;10.662;2023-03-16T14:07:41;3.65;;;1.80;;
64932;SDS011;51446;53.850;10.662;2023-03-16T14:10:11;2.90;;;2.10;;
64932;SDS011;51446;53.850;10.662;2023-03-16T14:12:48;4.75;;;2.42;;
64932;SDS011;51446;53.850;10.662;2023-03-16T14:15:14;5.60;;;1.98;;
64932;SDS011;51446;53.850;10.662;2023-03-16T14:17:41;12.13;;;6.40;;
64932;SDS011;51446;53.850;10.662;2023-03-16T14:20:09;3.28;;;2.03;;
64932;SDS011;51446;53.850;10.662;2023-03-16T14:22:43;5.03;;;1.70;;
64932;SDS011;51446;53.850;10.662;2023-03-16T14:25:09;1.95;;;1.50;;
64932;SDS011;51446;53.850;10.662;2023-03-16T14:27:43;3.72;;;2.88;;
64932;SDS011;51446;53.850;10.662;2023-03-16T14:30:20;12.00;;;7.40;;
64932;SDS011;51446;53.850;10.662;2023-03-16T14:32:53;2.72;;;2.30;;
64932;SDS011;51446;53.850;10.662;2023-03-16T14:35:28;4.63;;;2.70;;
64932;SDS011;51446;53.850;10.662;2023-03-16T14:38:21;4.05;;;1.98;;
64932;SDS011;51446;53.850;10.662;2023-03-16T14:40:54;50.40;;;22.95;;
64932;SDS011;51446;53.850;10.662;2023-03-16T14:43:27;143.25;;;52.40;;
64932;SDS011;51446;53.850;10.662;2023-03-16T14:45:56;54.85;;;25.23;;
64932;SDS011;51446;53.850;10.662;2023-03-16T14:48:22;108.05;;;41.90;;
64932;SDS011;51446;53.850;10.662;2023-03-16T14:50:49;10.88;;;5.80;;
64932;SDS011;51446;53.850;10.662;2023-03-16T14:53:18;41.77;;;15.23;;
64932;SDS011;51446;53.850;10.662;2023-03-16T14:55:44;33.08;;;14.48;;
64932;SDS011;51446;53.850;10.662;2023-03-16T14:58:09;8.63;;;4.63;;
64932;SDS011;51446;53.850;10.662;2023-03-16T15:00:34;4.43;;;3.30;;
64932;SDS011;51446;53.850;10.662;2023-03-16T15:03:02;2.30;;;2.07;;
64932;SDS011;51446;53.850;10.662;2023-03-16T15:05:36;6.00;;;1.92;;
64932;SDS011;51446;53.850;10.662;2023-03-16T15:08:03;4.18;;;1.95;;
64932;SDS011;51446;53.850;10.662;2023-03-16T15:10:33;26.98;;;12.10;;
64932;SDS011;51446;53.850;10.662;2023-03-16T15:13:00;12.83;;;6.37;;
64932;SDS011;51446;53.850;10.662;2023-03-16T15:15:31;7.60;;;3.50;;
64932;SDS011;51446;53.850;10.662;2023-03-16T15:17:56;6.07;;;3.23;;
64932;SDS011;51446;53.850;10.662;2023-03-16T15:20:23;2.80;;;1.73;;
64932;SDS011;51446;53.850;10.662;2023-03-16T15:22:55;3.80;;;1.60;;
64932;SDS011;51446;53.850;10.662;2023-03-16T15:28:02;2.30;;;1.60;;
64932;SDS011;51446;53.850;10.662;2023-03-16T15:30:35;1.83;;;1.60;;
64932;SDS011;51446;53.850;10.662;2023-03-16T15:33:02;6.45;;;3.28;;
64932;SDS011;51446;53.850;10.662;2023-03-16T15:35:27;3.03;;;1.90;;
64932;SDS011;51446;53.850;10.662;2023-03-16T15:37:52;2.47;;;1.60;;
64932;SDS011;51446;53.850;10.662;2023-03-16T15:40:20;2.80;;;1.70;;
64932;SDS011;51446;53.850;10.662;2023-03-16T15:42:47;2.63;;;1.90;;
64932;SDS011;51446;53.850;10.662;2023-03-16T15:45:14;2.03;;;1.70;;
64932;SDS011;51446;53.850;10.662;2023-03-16T15:47:42;2.95;;;1.83;;
64932;SDS011;51446;53.850;10.662;2023-03-16T15:50:09;4.75;;;2.17;;
64932;SDS011;51446;53.850;10.662;2023-03-16T15:52:36;5.55;;;2.60;;
64932;SDS011;51446;53.850;10.662;2023-03-16T15:55:04;4.30;;;2.10;;